sensor_id;sensor_type;location;lat;lon;timestamp;P1;durP1;ratioP1;P2;durP2;ratioP2
51226;SDS011;42714;48.260;10.980;2023-12-07T00:03:03;58.3;;;22.0;;
51226;SDS011;42714;48.260;10.980;2023-12-07T00:08:03;58.5;;;23.0;;
51226;SDS011;42714;48.260;10.980;2023-12-07T00:13:03;59.7;;;23.3;;
51226;SDS011;42714;48.260;10.980;2023-12-07T00:23:03;64.0;;;24.2;;
51226;SDS011;42714;48.260;10.980;2023-12-07T00:28:03;74.5;;;26.7;;
51226;SDS011;42714;48.260;10.980;2023-12-07T00:33:03;73.3;;;27.0;;
51226;SDS011;42714;48.260;10.980;2023-12-07T00:38:03;81.1;;;28.4;;
51226;SDS011;42714;48.260;10.980;2023-12-07T00:43:03;84.1;;;28.0;;
51226;SDS011;42714;48.260;10.980;2023-12-07T00:48:04;79.5;;;28.4;;
51226;SDS011;42714;48.260;10.980;2023-12-07T00:53:03;83.1;;;28.5;;
51226;SDS011;42714;48.260;10.980;2023-12-07T00:58:03;87.4;;;28.8;;
51226;SDS011;42714;48.260;10.980;2023-12-07T01:03:03;93.0;;;29.8;;
51226;SDS011;42714;48.260;10.980;2023-12-07T01:08:03;105.7;;;31.2;;
51226;SDS011;42714;48.260;10.980;2023-12-07T01:13:03;92.7;;;30.8;;
51226;SDS011;42714;48.260;10.980;2023-12-07T01:18:03;99.4;;;31.6;;
51226;SDS011;42714;48.260;10.980;2023-12-07T01:23:03;111.7;;;32.5;;
51226;SDS011;42714;48.260;10.980;2023-12-07T01:28:03;103.9;;;32.5;;
51226;SDS011;42714;48.260;10.980;2023-12-07T01:33:03;95.8;;;30.9;;
51226;SDS011;42714;48.260;10.980;2023-12-07T01:38:03;97.2;;;31.0;;
51226;SDS011;42714;48.260;10.980;2023-12-07T01:43:03;109.2;;;32.2;;
51226;SDS011;42714;48.260;10.980;2023-12-07T01:48:03;99.4;;;30.8;;
51226;SDS011;42714;48.260;10.980;2023-12-07T01:53:03;97.4;;;30.3;;
51226;SDS011;42714;48.260;10.980;2023-12-07T01:58:03;95.4;;;30.2;;
51226;SDS011;42714;48.260;10.980;2023-12-07T02:03:04;87.3;;;27.0;;
51226;SDS011;42714;48.260;10.980;2023-12-07T02:08:03;78.4;;;24.9;;
51226;SDS011;42714;48.260;10.980;2023-12-07T02:13:03;68.4;;;24.0;;
51226;SDS011;42714;48.260;10.980;2023-12-07T02:18:06;69.6;;;24.7;;
51226;SDS011;42714;48.260;10.980;2023-12-07T02:23:04;70.0;;;24.2;;
51226;SDS011;42714;48.260;10.980;2023-12-07T02:28:03;76.9;;;25.7;;
51226;SDS011;42714;48.260;10.980;2023-12-07T02:33:03;74.0;;;25.7;;
51226;SDS011;42714;48.260;10.980;2023-12-07T02:38:03;78.4;;;24.0;;
51226;SDS011;42714;48.260;10.980;2023-12-07T02:43:03;65.5;;;21.7;;
51226;SDS011;42714;48.260;10.980;2023-12-07T02:48:04;76.5;;;24.3;;
51226;SDS011;42714;48.260;10.980;2023-12-07T02:53:03;64.1;;;20.3;;
51226;SDS011;42714;48.260;10.980;2023-12-07T02:58:03;70.2;;;23.5;;
51226;SDS011;42714;48.260;10.980;2023-12-07T03:03:03;71.8;;;22.4;;
51226;SDS011;42714;48.260;10.980;2023-12-07T03:08:03;69.4;;;23.2;;
51226;SDS011;42714;48.260;10.980;2023-12-07T03:13:03;68.8;;;23.2;;
51226;SDS011;42714;48.260;10.980;2023-12-07T03:18:03;71.8;;;24.8;;
51226;SDS011;42714;48.260;10.980;2023-12-07T03:23:03;65.6;;;22.2;;
51226;SDS011;42714;48.260;10.980;2023-12-07T03:28:03;58.2;;;20.5;;
51226;SDS011;42714;48.260;10.980;2023-12-07T03:33:03;65.4;;;22.6;;
51226;SDS011;42714;48.260;10.980;2023-12-07T03:38:03;63.7;;;22.2;;
51226;SDS011;42714;48.260;10.980;2023-12-07T03:43:03;62.7;;;21.5;;
51226;SDS011;42714;48.260;10.980;2023-12-07T03:48:04;59.9;;;22.2;;
51226;SDS011;42714;48.260;10.980;2023-12-07T03:53:03;58.4;;;21.4;;
51226;SDS011;42714;48.260;10.980;2023-12-07T03:58:03;67.0;;;22.6;;
51226;SDS011;42714;48.260;10.980;2023-12-07T04:03:03;57.2;;;21.8;;
51226;SDS011;42714;48.260;10.980;2023-12-07T04:08:03;49.1;;;18.4;;
51226;SDS011;42714;48.260;10.980;2023-12-07T04:13:03;51.9;;;18.1;;
51226;SDS011;42714;48.260;10.980;2023-12-07T04:18:03;39.8;;;14.8;;
51226;SDS011;42714;48.260;10.980;2023-12-07T04:23:03;46.3;;;17.4;;
51226;SDS011;42714;48.260;10.980;2023-12-07T04:28:03;52.6;;;18.6;;
51226;SDS011;42714;48.260;10.980;2023-12-07T04:33:03;47.5;;;17.5;;
51226;SDS011;42714;48.260;10.980;2023-12-07T04:38:03;49.2;;;16.5;;
51226;SDS011;42714;48.260;10.980;2023-12-07T04:43:03;38.5;;;14.5;;
51226;SDS011;42714;48.260;10.980;2023-12-07T04:48:04;40.3;;;14.8;;
51226;SDS011;42714;48.260;10.980;2023-12-07T04:53:03;39.3;;;14.8;;
51226;SDS011;42714;48.260;10.980;2023-12-07T04:58:03;39.2;;;14.8;;
51226;SDS011;42714;48.260;10.980;2023-12-07T05:03:03;39.7;;;13.8;;
51226;SDS011;42714;48.260;10.980;2023-12-07T05:08:04;43.3;;;15.6;;
51226;SDS011;42714;48.260;10.980;2023-12-07T05:13:03;44.7;;;17.4;;
51226;SDS011;42714;48.260;10.980;2023-12-07T05:18:03;47.7;;;18.2;;
51226;SDS011;42714;48.260;10.980;2023-12-07T05:23:03;52.2;;;19.9;;
51226;SDS011;42714;48.260;10.980;2023-12-07T05:28:03;52.2;;;19.7;;
51226;SDS011;42714;48.260;10.980;2023-12-07T05:33:03;54.6;;;19.0;;
51226;SDS011;42714;48.260;10.980;2023-12-07T05:38:03;49.9;;;18.9;;
51226;SDS011;42714;48.260;10.980;2023-12-07T05:43:03;54.0;;;19.9;;
51226;SDS011;42714;48.260;10.980;2023-12-07T05:48:03;60.1;;;20.8;;
51226;SDS011;42714;48.260;10.980;2023-12-07T05:53:03;54.8;;;19.6;;
51226;SDS011;42714;48.260;10.980;2023-12-07T05:58:03;46.6;;;16.1;;
51226;SDS011;42714;48.260;10.980;2023-12-07T06:03:03;48.3;;;17.0;;
51226;SDS011;42714;48.260;10.980;2023-12-07T06:08:05;49.3;;;17.8;;
51226;SDS011;42714;48.260;10.980;2023-12-07T06:13:03;43.4;;;15.4;;
51226;SDS011;42714;48.260;10.980;2023-12-07T06:18:03;50.6;;;16.9;;
51226;SDS011;42714;48.260;10.980;2023-12-07T06:23:03;48.4;;;17.1;;
51226;SDS011;42714;48.260;10.980;2023-12-07T06:28:03;48.6;;;17.8;;
51226;SDS011;42714;48.260;10.980;2023-12-07T06:33:03;55.0;;;20.6;;
51226;SDS011;42714;48.260;10.980;2023-12-07T06:38:04;54.4;;;21.3;;
51226;SDS011;42714;48.260;10.980;2023-12-07T06:43:03;47.5;;;18.8;;
51226;SDS011;42714;48.260;10.980;2023-12-07T06:48:05;55.7;;;18.7;;
51226;SDS011;42714;48.260;10.980;2023-12-07T06:53:03;47.2;;;17.3;;
51226;SDS011;42714;48.260;10.980;2023-12-07T06:58:03;43.1;;;14.2;;
51226;SDS011;42714;48.260;10.980;2023-12-07T07:03:03;39.9;;;15.6;;
51226;SDS011;42714;48.260;10.980;2023-12-07T07:08:03;38.8;;;15.1;;
51226;SDS011;42714;48.260;10.980;2023-12-07T07:13:03;37.9;;;12.2;;
51226;SDS011;42714;48.260;10.980;2023-12-07T07:18:04;34.6;;;12.2;;
51226;SDS011;42714;48.260;10.980;2023-12-07T07:23:04;43.6;;;20.0;;
51226;SDS011;42714;48.260;10.980;2023-12-07T07:28:04;43.6;;;17.1;;
51226;SDS011;42714;48.260;10.980;2023-12-07T07:33:04;184.7;;;26.1;;
51226;SDS011;42714;48.260;10.980;2023-12-07T07:38:04;274.2;;;29.6;;
51226;SDS011;42714;48.260;10.980;2023-12-07T07:43:04;268.9;;;25.8;;
51226;SDS011;42714;48.260;10.980;2023-12-07T07:48:04;243.4;;;24.1;;
51226;SDS011;42714;48.260;10.980;2023-12-07T07:53:04;199.4;;;21.8;;
51226;SDS011;42714;48.260;10.980;2023-12-07T07:58:04;95.7;;;14.7;;
51226;SDS011;42714;48.260;10.980;2023-12-07T08:03:04;25.2;;;11.3;;
51226;SDS011;42714;48.260;10.980;2023-12-07T08:08:04;27.6;;;10.1;;
51226;SDS011;42714;48.260;10.980;2023-12-07T08:13:04;21.6;;;9.9;;
51226;SDS011;42714;48.260;10.980;2023-12-07T08:18:04;20.0;;;9.2;;
51226;SDS011;42714;48.260;10.980;2023-12-07T08:23:04;20.4;;;8.7;;
51226;SDS011;42714;48.260;10.980;2023-12-07T08:28:04;20.6;;;9.3;;
51226;SDS011;42714;48.260;10.980;2023-12-07T08:33:04;13.6;;;6.9;;
51226;SDS011;42714;48.260;10.980;2023-12-07T08:38:04;20.4;;;8.8;;
51226;SDS011;42714;48.260;10.980;2023-12-07T08:43:04;15.6;;;7.6;;
51226;SDS011;42714;48.260;10.980;2023-12-07T08:48:04;15.9;;;7.9;;
51226;SDS011;42714;48.260;10.980;2023-12-07T08:53:04;17.0;;;7.2;;
51226;SDS011;42714;48.260;10.980;2023-12-07T08:58:04;13.7;;;6.7;;
51226;SDS011;42714;48.260;10.980;2023-12-07T09:03:04;15.7;;;7.9;;
51226;SDS011;42714;48.260;10.980;2023-12-07T09:08:04;21.6;;;10.0;;
51226;SDS011;42714;48.260;10.980;2023-12-07T09:13:04;16.4;;;7.5;;
51226;SDS011;42714;48.260;10.980;2023-12-07T09:18:04;16.8;;;8.6;;
51226;SDS011;42714;48.260;10.980;2023-12-07T09:23:04;16.0;;;9.5;;
51226;SDS011;42714;48.260;10.980;2023-12-07T09:28:04;17.9;;;9.6;;
51226;SDS011;42714;48.260;10.980;2023-12-07T09:33:04;16.5;;;9.4;;
51226;SDS011;42714;48.260;10.980;2023-12-07T09:38:04;19.0;;;10.6;;
51226;SDS011;42714;48.260;10.980;2023-12-07T09:43:04;22.4;;;11.4;;
51226;SDS011;42714;48.260;10.980;2023-12-07T09:48:04;19.8;;;10.2;;
51226;SDS011;42714;48.260;10.980;2023-12-07T09:53:04;19.9;;;11.1;;
51226;SDS011;42714;48.260;10.980;2023-12-07T09:58:04;19.9;;;11.0;;
51226;SDS011;42714;48.260;10.980;2023-12-07T10:03:05;14.9;;;8.2;;
51226;SDS011;42714;48.260;10.980;2023-12-07T10:08:04;18.5;;;8.6;;
51226;SDS011;42714;48.260;10.980;2023-12-07T10:13:04;16.7;;;7.8;;
51226;SDS011;42714;48.260;10.980;2023-12-07T10:18:04;16.3;;;8.0;;
51226;SDS011;42714;48.260;10.980;2023-12-07T10:23:04;18.1;;;8.6;;
51226;SDS011;42714;48.260;10.980;2023-12-07T10:28:04;16.9;;;8.1;;
51226;SDS011;42714;48.260;10.980;2023-12-07T10:33:04;15.4;;;7.8;;
51226;SDS011;42714;48.260;10.980;2023-12-07T10:38:04;12.6;;;6.0;;
51226;SDS011;42714;48.260;10.980;2023-12-07T10:43:04;12.1;;;5.9;;
51226;SDS011;42714;48.260;10.980;2023-12-07T10:48:06;10.4;;;5.7;;
51226;SDS011;42714;48.260;10.980;2023-12-07T10:53:06;12.3;;;6.9;;
51226;SDS011;42714;48.260;10.980;2023-12-07T10:58:04;13.2;;;6.7;;
51226;SDS011;42714;48.260;10.980;2023-12-07T11:03:04;15.3;;;7.3;;
51226;SDS011;42714;48.260;10.980;2023-12-07T11:08:07;13.8;;;7.9;;
51226;SDS011;42714;48.260;10.980;2023-12-07T11:13:08;15.5;;;7.8;;
51226;SDS011;42714;48.260;10.980;2023-12-07T11:18:04;16.8;;;8.3;;
51226;SDS011;42714;48.260;10.980;2023-12-07T11:23:04;14.9;;;8.1;;
51226;SDS011;42714;48.260;10.980;2023-12-07T11:28:04;17.5;;;10.1;;
51226;SDS011;42714;48.260;10.980;2023-12-07T11:33:04;16.1;;;9.2;;
51226;SDS011;42714;48.260;10.980;2023-12-07T11:38:05;19.3;;;10.9;;
51226;SDS011;42714;48.260;10.980;2023-12-07T11:43:04;22.0;;;10.5;;
51226;SDS011;42714;48.260;10.980;2023-12-07T11:48:07;14.8;;;8.2;;
51226;SDS011;42714;48.260;10.980;2023-12-07T11:53:05;14.5;;;6.9;;
51226;SDS011;42714;48.260;10.980;2023-12-07T11:58:04;9.2;;;4.5;;
51226;SDS011;42714;48.260;10.980;2023-12-07T12:03:05;9.0;;;4.9;;
51226;SDS011;42714;48.260;10.980;2023-12-07T12:08:04;10.1;;;4.6;;
51226;SDS011;42714;48.260;10.980;2023-12-07T12:13:04;8.6;;;4.4;;
51226;SDS011;42714;48.260;10.980;2023-12-07T12:18:04;7.6;;;3.9;;
51226;SDS011;42714;48.260;10.980;2023-12-07T12:23:04;7.6;;;4.2;;
51226;SDS011;42714;48.260;10.980;2023-12-07T12:28:04;8.9;;;4.4;;
51226;SDS011;42714;48.260;10.980;2023-12-07T12:33:04;9.5;;;4.7;;
51226;SDS011;42714;48.260;10.980;2023-12-07T12:38:08;6.7;;;3.2;;
51226;SDS011;42714;48.260;10.980;2023-12-07T12:43:04;6.6;;;3.6;;
51226;SDS011;42714;48.260;10.980;2023-12-07T12:48:04;7.9;;;3.4;;
51226;SDS011;42714;48.260;10.980;2023-12-07T12:53:05;7.5;;;3.7;;
51226;SDS011;42714;48.260;10.980;2023-12-07T12:58:05;9.9;;;3.9;;
51226;SDS011;42714;48.260;10.980;2023-12-07T13:03:05;7.9;;;3.6;;
51226;SDS011;42714;48.260;10.980;2023-12-07T13:08:04;10.0;;;3.9;;
51226;SDS011;42714;48.260;10.980;2023-12-07T13:13:04;9.6;;;4.2;;
51226;SDS011;42714;48.260;10.980;2023-12-07T13:18:04;9.5;;;4.7;;
51226;SDS011;42714;48.260;10.980;2023-12-07T13:23:04;9.9;;;3.8;;
51226;SDS011;42714;48.260;10.980;2023-12-07T13:28:04;8.2;;;3.7;;
51226;SDS011;42714;48.260;10.980;2023-12-07T13:33:04;9.0;;;4.1;;
51226;SDS011;42714;48.260;10.980;2023-12-07T13:38:04;8.9;;;3.1;;
51226;SDS011;42714;48.260;10.980;2023-12-07T13:43:04;5.8;;;2.7;;
51226;SDS011;42714;48.260;10.980;2023-12-07T13:48:04;11.0;;;3.2;;
51226;SDS011;42714;48.260;10.980;2023-12-07T13:53:04;8.6;;;3.0;;
51226;SDS011;42714;48.260;10.980;2023-12-07T13:58:04;10.1;;;3.1;;
51226;SDS011;42714;48.260;10.980;2023-12-07T14:03:04;9.5;;;3.5;;
51226;SDS011;42714;48.260;10.980;2023-12-07T14:08:04;11.0;;;4.7;;
51226;SDS011;42714;48.260;10.980;2023-12-07T14:13:04;11.3;;;5.4;;
51226;SDS011;42714;48.260;10.980;2023-12-07T14:18:04;12.1;;;5.4;;
51226;SDS011;42714;48.260;10.980;2023-12-07T14:23:04;16.8;;;5.6;;
51226;SDS011;42714;48.260;10.980;2023-12-07T14:28:04;14.4;;;7.4;;
51226;SDS011;42714;48.260;10.980;2023-12-07T14:33:04;14.2;;;6.0;;
51226;SDS011;42714;48.260;10.980;2023-12-07T14:38:04;14.8;;;6.3;;
51226;SDS011;42714;48.260;10.980;2023-12-07T14:43:04;19.4;;;8.5;;
51226;SDS011;42714;48.260;10.980;2023-12-07T14:48:04;18.8;;;7.8;;
51226;SDS011;42714;48.260;10.980;2023-12-07T14:53:04;28.3;;;10.5;;
51226;SDS011;42714;48.260;10.980;2023-12-07T14:58:04;27.4;;;10.1;;
51226;SDS011;42714;48.260;10.980;2023-12-07T15:03:04;22.2;;;9.3;;
51226;SDS011;42714;48.260;10.980;2023-12-07T15:08:04;25.1;;;10.5;;
51226;SDS011;42714;48.260;10.980;2023-12-07T15:13:04;30.2;;;10.9;;
51226;SDS011;42714;48.260;10.980;2023-12-07T15:18:04;26.9;;;12.0;;
51226;SDS011;42714;48.260;10.980;2023-12-07T15:23:04;26.2;;;12.1;;
51226;SDS011;42714;48.260;10.980;2023-12-07T15:28:04;30.2;;;13.1;;
51226;SDS011;42714;48.260;10.980;2023-12-07T15:33:04;35.2;;;14.9;;
51226;SDS011;42714;48.260;10.980;2023-12-07T15:38:04;41.2;;;19.7;;
51226;SDS011;42714;48.260;10.980;2023-12-07T15:43:04;40.5;;;18.1;;
51226;SDS011;42714;48.260;10.980;2023-12-07T15:48:04;40.9;;;17.1;;
51226;SDS011;42714;48.260;10.980;2023-12-07T15:53:04;36.8;;;17.4;;
51226;SDS011;42714;48.260;10.980;2023-12-07T15:58:04;36.9;;;16.9;;
51226;SDS011;42714;48.260;10.980;2023-12-07T16:03:04;60.9;;;21.7;;
51226;SDS011;42714;48.260;10.980;2023-12-07T16:08:04;50.6;;;20.7;;
51226;SDS011;42714;48.260;10.980;2023-12-07T16:13:04;47.0;;;19.5;;
51226;SDS011;42714;48.260;10.980;2023-12-07T16:18:04;51.4;;;20.9;;
51226;SDS011;42714;48.260;10.980;2023-12-07T16:23:04;43.2;;;19.3;;
51226;SDS011;42714;48.260;10.980;2023-12-07T16:28:04;41.3;;;16.1;;
51226;SDS011;42714;48.260;10.980;2023-12-07T16:33:04;32.2;;;13.3;;
51226;SDS011;42714;48.260;10.980;2023-12-07T16:38:04;36.2;;;15.1;;
51226;SDS011;42714;48.260;10.980;2023-12-07T16:43:04;42.3;;;16.4;;
51226;SDS011;42714;48.260;10.980;2023-12-07T16:48:04;40.5;;;18.5;;
51226;SDS011;42714;48.260;10.980;2023-12-07T16:53:04;43.9;;;17.1;;
51226;SDS011;42714;48.260;10.980;2023-12-07T16:58:04;34.7;;;15.7;;
51226;SDS011;42714;48.260;10.980;2023-12-07T17:03:04;51.2;;;18.5;;
51226;SDS011;42714;48.260;10.980;2023-12-07T17:08:04;38.8;;;16.0;;
51226;SDS011;42714;48.260;10.980;2023-12-07T17:13:04;34.0;;;13.7;;
51226;SDS011;42714;48.260;10.980;2023-12-07T17:18:04;30.3;;;10.9;;
51226;SDS011;42714;48.260;10.980;2023-12-07T17:23:04;40.3;;;17.4;;
51226;SDS011;42714;48.260;10.980;2023-12-07T17:28:04;30.2;;;11.0;;
51226;SDS011;42714;48.260;10.980;2023-12-07T17:33:04;25.8;;;11.5;;
51226;SDS011;42714;48.260;10.980;2023-12-07T17:38:04;26.1;;;10.8;;
51226;SDS011;42714;48.260;10.980;2023-12-07T17:43:04;39.5;;;16.8;;
51226;SDS011;42714;48.260;10.980;2023-12-07T17:48:04;23.3;;;8.7;;
51226;SDS011;42714;48.260;10.980;2023-12-07T17:53:04;33.9;;;13.7;;
51226;SDS011;42714;48.260;10.980;2023-12-07T17:58:04;26.8;;;10.7;;
51226;SDS011;42714;48.260;10.980;2023-12-07T18:03:04;36.8;;;15.4;;
51226;SDS011;42714;48.260;10.980;2023-12-07T18:08:04;28.3;;;11.4;;
51226;SDS011;42714;48.260;10.980;2023-12-07T18:13:04;31.0;;;13.3;;
51226;SDS011;42714;48.260;10.980;2023-12-07T18:18:04;20.0;;;8.9;;
51226;SDS011;42714;48.260;10.980;2023-12-07T18:23:04;27.4;;;10.0;;
51226;SDS011;42714;48.260;10.980;2023-12-07T18:28:04;25.2;;;10.4;;
51226;SDS011;42714;48.260;10.980;2023-12-07T18:33:04;33.4;;;10.2;;
51226;SDS011;42714;48.260;10.980;2023-12-07T18:38:04;22.4;;;9.7;;
51226;SDS011;42714;48.260;10.980;2023-12-07T18:43:04;37.1;;;16.3;;
51226;SDS011;42714;48.260;10.980;2023-12-07T18:48:05;37.4;;;15.7;;
51226;SDS011;42714;48.260;10.980;2023-12-07T18:53:04;44.4;;;17.0;;
51226;SDS011;42714;48.260;10.980;2023-12-07T18:58:04;43.7;;;17.7;;
51226;SDS011;42714;48.260;10.980;2023-12-07T19:03:04;41.2;;;18.1;;
51226;SDS011;42714;48.260;10.980;2023-12-07T19:08:04;50.7;;;22.3;;
51226;SDS011;42714;48.260;10.980;2023-12-07T19:13:05;50.7;;;21.0;;
51226;SDS011;42714;48.260;10.980;2023-12-07T19:18:04;56.6;;;22.9;;
51226;SDS011;42714;48.260;10.980;2023-12-07T19:23:04;52.6;;;21.8;;
51226;SDS011;42714;48.260;10.980;2023-12-07T19:28:04;37.2;;;13.7;;
51226;SDS011;42714;48.260;10.980;2023-12-07T19:33:04;46.3;;;20.1;;
51226;SDS011;42714;48.260;10.980;2023-12-07T19:38:04;39.7;;;14.0;;
51226;SDS011;42714;48.260;10.980;2023-12-07T19:43:04;54.3;;;21.4;;
51226;SDS011;42714;48.260;10.980;2023-12-07T19:48:05;59.9;;;21.7;;
51226;SDS011;42714;48.260;10.980;2023-12-07T19:53:04;54.9;;;22.8;;
51226;SDS011;42714;48.260;10.980;2023-12-07T19:58:04;52.1;;;19.9;;
51226;SDS011;42714;48.260;10.980;2023-12-07T20:03:04;59.3;;;24.6;;
51226;SDS011;42714;48.260;10.980;2023-12-07T20:08:04;65.3;;;23.6;;
51226;SDS011;42714;48.260;10.980;2023-12-07T20:13:04;57.3;;;22.9;;
51226;SDS011;42714;48.260;10.980;2023-12-07T20:18:04;59.6;;;22.9;;
51226;SDS011;42714;48.260;10.980;2023-12-07T20:23:04;74.8;;;26.9;;
51226;SDS011;42714;48.260;10.980;2023-12-07T20:28:04;33.7;;;11.3;;
51226;SDS011;42714;48.260;10.980;2023-12-07T20:33:04;61.6;;;22.4;;
51226;SDS011;42714;48.260;10.980;2023-12-07T20:38:06;76.8;;;27.3;;
51226;SDS011;42714;48.260;10.980;2023-12-07T20:43:04;80.2;;;29.2;;
51226;SDS011;42714;48.260;10.980;2023-12-07T20:48:04;79.0;;;31.9;;
51226;SDS011;42714;48.260;10.980;2023-12-07T20:53:04;90.4;;;30.9;;
51226;SDS011;42714;48.260;10.980;2023-12-07T20:58:04;91.7;;;30.9;;
51226;SDS011;42714;48.260;10.980;2023-12-07T21:03:04;93.9;;;33.0;;
51226;SDS011;42714;48.260;10.980;2023-12-07T21:08:04;91.4;;;31.5;;
51226;SDS011;42714;48.260;10.980;2023-12-07T21:13:04;93.0;;;34.9;;
51226;SDS011;42714;48.260;10.980;2023-12-07T21:18:04;87.8;;;32.0;;
51226;SDS011;42714;48.260;10.980;2023-12-07T21:23:04;89.3;;;32.2;;
51226;SDS011;42714;48.260;10.980;2023-12-07T21:28:04;92.3;;;28.9;;
51226;SDS011;42714;48.260;10.980;2023-12-07T21:38:05;88.6;;;30.4;;
51226;SDS011;42714;48.260;10.980;2023-12-07T21:43:04;85.5;;;29.6;;
51226;SDS011;42714;48.260;10.980;2023-12-07T21:48:06;93.8;;;30.3;;
51226;SDS011;42714;48.260;10.980;2023-12-07T21:53:04;88.7;;;31.0;;
51226;SDS011;42714;48.260;10.980;2023-12-07T21:58:04;96.1;;;31.0;;
51226;SDS011;42714;48.260;10.980;2023-12-07T22:03:04;89.4;;;26.9;;
51226;SDS011;42714;48.260;10.980;2023-12-07T22:08:04;94.2;;;31.5;;
51226;SDS011;42714;48.260;10.980;2023-12-07T22:13:04;90.6;;;30.8;;
51226;SDS011;42714;48.260;10.980;2023-12-07T22:18:04;72.9;;;27.7;;
51226;SDS011;42714;48.260;10.980;2023-12-07T22:23:04;79.5;;;29.4;;
51226;SDS011;42714;48.260;10.980;2023-12-07T22:28:04;79.9;;;30.2;;
51226;SDS011;42714;48.260;10.980;2023-12-07T22:33:04;75.4;;;27.2;;
51226;SDS011;42714;48.260;10.980;2023-12-07T22:38:04;74.7;;;27.3;;
51226;SDS011;42714;48.260;10.980;2023-12-07T22:43:04;74.6;;;27.6;;
51226;SDS011;42714;48.260;10.980;2023-12-07T22:48:04;75.4;;;26.8;;
51226;SDS011;42714;48.260;10.980;2023-12-07T22:53:04;82.0;;;30.4;;
51226;SDS011;42714;48.260;10.980;2023-12-07T22:58:04;87.6;;;31.9;;
51226;SDS011;42714;48.260;10.980;2023-12-07T23:03:04;83.9;;;29.9;;
51226;SDS011;42714;48.260;10.980;2023-12-07T23:08:04;80.0;;;29.0;;
51226;SDS011;42714;48.260;10.980;2023-12-07T23:13:04;79.0;;;27.1;;
51226;SDS011;42714;48.260;10.980;2023-12-07T23:18:04;73.5;;;28.2;;
51226;SDS011;42714;48.260;10.980;2023-12-07T23:23:04;72.7;;;27.7;;
51226;SDS011;42714;48.260;10.980;2023-12-07T23:28:04;76.0;;;27.9;;
51226;SDS011;42714;48.260;10.980;2023-12-07T23:33:04;79.6;;;29.0;;
51226;SDS011;42714;48.260;10.980;2023-12-07T23:38:04;79.8;;;29.5;;
51226;SDS011;42714;48.260;10.980;2023-12-07T23:43:04;81.9;;;29.9;;
51226;SDS011;42714;48.260;10.980;2023-12-07T23:48:04;71.8;;;25.8;;
51226;SDS011;42714;48.260;10.980;2023-12-07T23:53:04;77.7;;;28.5;;
51226;SDS011;42714;48.260;10.980;2023-12-07T23:58:04;79.9;;;30.6;;
